Аэропорт: Хабаровск-Новый. Хабаровск

ICAO: UHHH

METAR:
2019/01/21 23:00
UHHH 212300Z 19003MPS CAVOK M22/M26 Q1009 R23L/090060 NOSIG RMK QFE750/1000
METAR:
2019/01/21 21:21
TAF TAF UHHH 211949Z 2121/2303 22003MPS 9999 NSC 
      TEMPO 2121/2206 24006MPS 2000 BR FU SCT006 
      TEMPO 2206/2212 VRB01MPS 3000 -SN SCT020